^^
WestSenecaWeather Station Historical Data
 
Daily Summary for June 21, 2018 Units:  English    Metric   Both
Daily Weekly Monthly Yearly Custom
  Current: High: Low: Average:
Temperature: 73.4 °F 73.9 °F 53.4 °F 62.6 °F
Dew Point: 58.7 °F 60.1 °F 52.0 °F 56.4 °F
Humidity: 60% 96% 58% 81%
Wind Speed: 8.1mph 15.0mph 0.0mph 4.7mph
Wind Gust: 6.4mph 10.7mph - -
WindSE - - South
Pressure: 29.86 in 29.88 in 29.79 in -
Precipitation: 0.00 in      
Historical Graphs
 
 
Tabular Data for June 21, 2018
Time Temperature Dew Point Pressure Wind Wind Speed Wind Gust Humidity Rainfall Rate (Hourly) solar
00:04 59.2 °F 56.6 °F 29.81 in Calm     91% 0.00 in 0.00 W/m2
00:09 59.0 °F 56.4 °F 29.80 in Calm     91% 0.00 in 0.00 W/m2
00:14 58.8 °F 56.2 °F 29.80 in Calm     91% 0.00 in 0.00 W/m2
00:19 58.6 °F 56.0 °F 29.80 in Calm     91% 0.00 in 0.00 W/m2
00:24 58.4 °F 55.8 °F 29.80 in Calm     91% 0.00 in 0.00 W/m2
00:29 58.3 °F 55.7 °F 29.80 in Calm     91% 0.00 in 0.00 W/m2
00:34 58.2 °F 55.9 °F 29.80 in Calm     92% 0.00 in 0.00 W/m2
00:39 58.1 °F 55.8 °F 29.80 in Calm     92% 0.00 in 0.00 W/m2
00:44 58.0 °F 55.7 °F 29.80 in Calm     92% 0.00 in 0.00 W/m2
00:49 57.9 °F 55.6 °F 29.80 in Calm     92% 0.00 in 0.00 W/m2
00:54 57.8 °F 55.5 °F 29.80 in Calm     92% 0.00 in 0.00 W/m2
00:59 57.7 °F 55.7 °F 29.80 in Calm     93% 0.00 in 0.00 W/m2
01:04 57.6 °F 55.3 °F 29.80 in Calm     92% 0.00 in 0.00 W/m2
01:09 57.6 °F 55.6 °F 29.80 in Calm     93% 0.00 in 0.00 W/m2
01:14 57.6 °F 55.6 °F 29.80 in Calm     93% 0.00 in 0.00 W/m2
01:19 57.6 °F 55.6 °F 29.80 in Calm     93% 0.00 in 0.00 W/m2
01:24 57.5 °F 55.5 °F 29.81 in Calm     93% 0.00 in 0.00 W/m2
01:29 57.3 °F 55.3 °F 29.81 in Calm     93% 0.00 in 0.00 W/m2
01:34 57.2 °F 55.2 °F 29.80 in Calm     93% 0.00 in 0.00 W/m2
01:39 57.0 °F 55.0 °F 29.81 in Calm     93% 0.00 in 0.00 W/m2
01:44 56.8 °F 54.8 °F 29.80 in Calm     93% 0.00 in 0.00 W/m2
01:49 56.7 °F 54.7 °F 29.80 in Calm     93% 0.00 in 0.00 W/m2
01:54 56.6 °F 54.6 °F 29.80 in Calm     93% 0.00 in 0.00 W/m2
01:59 56.4 °F 54.4 °F 29.81 in Calm     93% 0.00 in 0.00 W/m2
02:04 56.2 °F 54.2 °F 29.81 in Calm     93% 0.00 in 0.00 W/m2
02:09 56.1 °F 54.1 °F 29.81 in Calm     93% 0.00 in 0.00 W/m2
02:14 56.0 °F 54.3 °F 29.81 in Calm     94% 0.00 in 0.00 W/m2
02:19 56.0 °F 54.3 °F 29.80 in Calm     94% 0.00 in 0.00 W/m2
02:24 55.9 °F 54.2 °F 29.80 in Calm     94% 0.00 in 0.00 W/m2
02:29 55.7 °F 54.0 °F 29.80 in Calm     94% 0.00 in 0.00 W/m2
02:34 55.7 °F 54.0 °F 29.80 in Calm     94% 0.00 in 0.00 W/m2
02:39 55.7 °F 54.0 °F 29.80 in Calm     94% 0.00 in 0.00 W/m2
02:44 55.7 °F 54.0 °F 29.80 in Calm     94% 0.00 in 0.00 W/m2
02:49 55.6 °F 53.9 °F 29.80 in Calm     94% 0.00 in 0.00 W/m2
02:54 55.5 °F 53.8 °F 29.80 in Calm     94% 0.00 in 0.00 W/m2
02:59 55.6 °F 53.9 °F 29.80 in Calm     94% 0.00 in 0.00 W/m2
03:04 55.5 °F 53.8 °F 29.79 in Calm     94% 0.00 in 0.00 W/m2
03:09 55.5 °F 53.8 °F 29.79 in Calm     94% 0.00 in 0.00 W/m2
03:14 55.4 °F 53.7 °F 29.79 in Calm     94% 0.00 in 0.00 W/m2
03:19 55.4 °F 54.0 °F 29.79 in Calm     95% 0.00 in 0.00 W/m2
03:24 55.4 °F 54.0 °F 29.79 in Calm     95% 0.00 in 0.00 W/m2
03:29 55.4 °F 53.7 °F 29.79 in Calm     94% 0.00 in 0.00 W/m2
03:34 55.3 °F 53.6 °F 29.79 in Calm     94% 0.00 in 0.00 W/m2
03:39 55.3 °F 53.6 °F 29.79 in Calm     94% 0.00 in 0.00 W/m2
03:44 55.2 °F 53.8 °F 29.79 in Calm     95% 0.00 in 0.00 W/m2
03:49 55.1 °F 53.7 °F 29.79 in Calm     95% 0.00 in 0.00 W/m2
03:54 55.0 °F 53.6 °F 29.79 in Calm     95% 0.00 in 0.00 W/m2
03:59 54.9 °F 53.2 °F 29.79 in Calm     94% 0.00 in 0.00 W/m2
04:04 54.8 °F 53.1 °F 29.79 in Calm     94% 0.00 in 0.00 W/m2
04:09 54.6 °F 52.9 °F 29.79 in Calm     94% 0.00 in 0.00 W/m2
04:14 54.4 °F 52.7 °F 29.79 in Calm     94% 0.00 in 0.00 W/m2
04:19 54.3 °F 52.6 °F 29.79 in Calm     94% 0.00 in 0.00 W/m2
04:24 54.2 °F 52.8 °F 29.79 in Calm     95% 0.00 in 0.00 W/m2
04:29 54.3 °F 52.9 °F 29.79 in Calm     95% 0.00 in 0.00 W/m2
04:34 54.2 °F 52.8 °F 29.79 in Calm     95% 0.00 in 0.00 W/m2
04:39 54.1 °F 52.7 °F 29.80 in Calm     95% 0.00 in 0.00 W/m2
04:44 54.0 °F 52.6 °F 29.80 in Calm     95% 0.00 in 0.00 W/m2
04:49 53.9 °F 52.5 °F 29.80 in North 1.2 mph 1.5 mph 95% 0.00 in 0.00 W/m2
04:54 54.0 °F 52.6 °F 29.80 in SE 4.0 mph 2.9 mph 95% 0.00 in 0.00 W/m2
04:59 54.1 °F 52.7 °F 29.80 in SE 1.2 mph 0.1 mph 95% 0.00 in 0.00 W/m2
05:04 54.1 °F 52.7 °F 29.80 in SE 1.2 mph   95% 0.00 in 0.00 W/m2
05:09 54.1 °F 52.7 °F 29.80 in SE 2.0 mph 0.5 mph 95% 0.00 in 0.00 W/m2
05:14 54.0 °F 52.6 °F 29.80 in Calm     95% 0.00 in 0.00 W/m2
05:19 53.9 °F 52.5 °F 29.80 in Calm     95% 0.00 in 0.00 W/m2
05:24 53.8 °F 52.4 °F 29.80 in Calm     95% 0.00 in 0.00 W/m2
05:29 53.7 °F 52.3 °F 29.80 in Calm     95% 0.00 in 0.00 W/m2
05:34 53.7 °F 52.3 °F 29.81 in Calm     95% 0.00 in 0.00 W/m2
05:39 53.6 °F 52.2 °F 29.81 in Calm     95% 0.00 in 0.00 W/m2
05:44 53.5 °F 52.1 °F 29.81 in Calm     95% 0.00 in 0.00 W/m2
05:49 53.4 °F 52.0 °F 29.81 in Calm     95% 0.00 in 0.00 W/m2
05:54 53.4 °F 52.0 °F 29.81 in Calm     95% 0.00 in 0.00 W/m2
05:59 53.5 °F 52.4 °F 29.82 in Calm     96% 0.00 in 0.00 W/m2
06:04 53.6 °F 52.5 °F 29.82 in Calm     96% 0.00 in 0.00 W/m2
06:09 53.9 °F 52.8 °F 29.82 in Calm     96% 0.00 in 0.00 W/m2
06:14 54.2 °F 53.1 °F 29.82 in Calm     96% 0.00 in 0.00 W/m2
06:19 54.6 °F 53.5 °F 29.82 in Calm     96% 0.00 in 0.00 W/m2
06:24 54.9 °F 53.8 °F 29.82 in Calm     96% 0.00 in 0.00 W/m2
06:29 55.2 °F 54.1 °F 29.82 in Calm     96% 0.00 in 0.00 W/m2
06:34 55.6 °F 54.5 °F 29.83 in SE 1.2 mph 0.1 mph 96% 0.00 in 0.00 W/m2
06:39 55.9 °F 54.5 °F 29.83 in SE 2.3 mph 0.5 mph 95% 0.00 in 0.00 W/m2
06:44 56.3 °F 54.9 °F 29.83 in Calm     95% 0.00 in 0.00 W/m2
06:49 56.7 °F 55.0 °F 29.83 in Calm     94% 0.00 in 0.00 W/m2
06:54 57.1 °F 55.1 °F 29.83 in Calm     93% 0.00 in 0.00 W/m2
06:59 57.5 °F 55.2 °F 29.83 in Calm     92% 0.00 in 0.00 W/m2
07:04 58.0 °F 55.4 °F 29.84 in Calm     91% 0.00 in 0.00 W/m2
07:09 58.2 °F 55.3 °F 29.84 in Calm     90% 0.00 in 0.00 W/m2
07:14 58.4 °F 55.2 °F 29.84 in Calm     89% 0.00 in 0.00 W/m2
07:19 58.6 °F 55.4 °F 29.84 in Calm     89% 0.00 in 0.00 W/m2
07:24 59.2 °F 56.0 °F 29.84 in SSE 2.0 mph 0.9 mph 89% 0.00 in 0.00 W/m2
07:29 59.8 °F 56.2 °F 29.85 in SSE 4.0 mph 3.1 mph 88% 0.00 in 0.00 W/m2
07:34 60.2 °F 56.3 °F 29.85 in SSE 3.5 mph 1.9 mph 87% 0.00 in 0.00 W/m2
07:39 60.7 °F 56.8 °F 29.85 in SSW 4.6 mph 3.9 mph 87% 0.00 in 0.00 W/m2
07:44 61.1 °F 56.9 °F 29.85 in SSE 5.8 mph 2.9 mph 86% 0.00 in 0.00 W/m2
07:49 61.6 °F 57.0 °F 29.85 in SSW 7.0 mph 5.5 mph 85% 0.00 in 0.00 W/m2
07:54 62.1 °F 57.2 °F 29.86 in South 4.6 mph 3.9 mph 84% 0.00 in 0.00 W/m2
07:59 62.6 °F 57.7 °F 29.86 in SSE 6.0 mph 2.6 mph 84% 0.00 in 0.00 W/m2
08:04 62.9 °F 57.3 °F 29.86 in SSE 8.1 mph 4.5 mph 82% 0.00 in 0.00 W/m2
08:09 62.7 °F 57.1 °F 29.86 in South 11.5 mph 4.7 mph 82% 0.00 in 0.00 W/m2
08:14 62.8 °F 57.2 °F 29.86 in SE 11.5 mph 9.4 mph 82% 0.00 in 0.00 W/m2
08:19 62.9 °F 57.0 °F 29.86 in South 12.7 mph 4.0 mph 81% 0.00 in 0.00 W/m2
08:24 63.0 °F 57.1 °F 29.86 in WSW 12.0 mph 10.7 mph 81% 0.00 in 0.00 W/m2
08:29 62.9 °F 57.0 °F 29.86 in SSW 11.5 mph 7.1 mph 81% 0.00 in 0.00 W/m2
08:34 63.1 °F 57.2 °F 29.86 in SSE 10.4 mph 8.0 mph 81% 0.00 in 0.00 W/m2
08:39 63.4 °F 57.5 °F 29.86 in South 10.4 mph 5.5 mph 81% 0.00 in 0.00 W/m2
08:44 63.9 °F 57.6 °F 29.86 in South 6.9 mph 2.7 mph 80% 0.00 in 0.00 W/m2
08:49 64.5 °F 57.8 °F 29.86 in South 4.6 mph 3.8 mph 79% 0.00 in 0.00 W/m2
08:54 65.0 °F 58.0 °F 29.87 in WSW 8.1 mph 4.0 mph 78% 0.00 in 0.00 W/m2
08:59 65.0 °F 57.2 °F 29.87 in South 10.4 mph 6.1 mph 76% 0.00 in 0.00 W/m2
09:04 65.1 °F 57.3 °F 29.87 in WSW 8.0 mph 5.3 mph 76% 0.00 in 0.00 W/m2
09:09 65.5 °F 57.4 °F 29.87 in WSW 9.2 mph 6.6 mph 75% 0.00 in 0.00 W/m2
09:14 65.3 °F 56.8 °F 29.87 in SW 9.2 mph 6.3 mph 74% 0.00 in 0.00 W/m2
09:19 65.5 °F 57.4 °F 29.87 in West 5.8 mph 4.8 mph 75% 0.00 in 0.00 W/m2
09:24 65.8 °F 57.3 °F 29.87 in SSE 6.0 mph 6.0 mph 74% 0.00 in 0.00 W/m2
09:29 65.9 °F 57.4 °F 29.86 in SSE 4.0 mph 3.7 mph 74% 0.00 in 0.00 W/m2
09:34 66.3 °F 57.4 °F 29.86 in SSE 6.9 mph 7.8 mph 73% 0.00 in 0.00 W/m2
09:39 66.3 °F 57.4 °F 29.86 in South 10.4 mph 7.5 mph 73% 0.00 in 0.00 W/m2
09:44 66.5 °F 57.6 °F 29.86 in SSW 12.7 mph 6.5 mph 73% 0.00 in 0.00 W/m2
09:49 66.8 °F 57.9 °F 29.86 in SSW 8.1 mph 3.5 mph 73% 0.00 in 0.00 W/m2
09:54 67.4 °F 58.1 °F 29.86 in South 6.0 mph 6.1 mph 72% 0.00 in 0.00 W/m2
09:59 67.2 °F 57.5 °F 29.86 in SSE 10.4 mph 5.7 mph 71% 0.00 in 0.00 W/m2
10:04 67.1 °F 57.8 °F 29.86 in South 9.2 mph 4.7 mph 72% 0.00 in 0.00 W/m2
10:09 67.2 °F 57.9 °F 29.86 in SSW 6.0 mph 4.6 mph 72% 0.00 in 0.00 W/m2
10:14 67.7 °F 58.3 °F 29.86 in South 11.5 mph 3.3 mph 72% 0.00 in 0.00 W/m2
10:19 67.9 °F 57.8 °F 29.87 in SSE 11.5 mph 6.8 mph 70% 0.00 in 0.00 W/m2
10:24 67.7 °F 58.0 °F 29.87 in SW 8.1 mph 5.3 mph 71% 0.00 in 0.00 W/m2
10:29 68.1 °F 57.9 °F 29.87 in SE 10.4 mph 7.8 mph 70% 0.00 in 0.00 W/m2
10:34 68.1 °F 57.9 °F 29.87 in SSE 8.1 mph 4.9 mph 70% 0.00 in 0.00 W/m2
10:39 68.7 °F 58.9 °F 29.87 in SSE 4.6 mph 2.9 mph 71% 0.00 in 0.00 W/m2
10:44 68.5 °F 58.3 °F 29.87 in SE 10.4 mph 8.8 mph 70% 0.00 in 0.00 W/m2
10:49 68.0 °F 58.6 °F 29.87 in SSE 6.9 mph 3.2 mph 72% 0.00 in 0.00 W/m2
10:54 68.4 °F 58.6 °F 29.88 in SSE 10.4 mph 6.1 mph 71% 0.00 in 0.00 W/m2
10:59 68.5 °F 59.1 °F 29.87 in SSW 8.0 mph 4.7 mph 72% 0.00 in 0.00 W/m2
11:04 68.6 °F 58.4 °F 29.87 in SE 9.2 mph 4.8 mph 70% 0.00 in 0.00 W/m2
11:09 68.1 °F 58.3 °F 29.87 in South 12.7 mph 8.2 mph 71% 0.00 in 0.00 W/m2
11:14 68.1 °F 58.3 °F 29.87 in SW 15.0 mph 7.4 mph 71% 0.00 in 0.00 W/m2
11:19 68.8 °F 59.0 °F 29.88 in SSW 9.2 mph 5.9 mph 71% 0.00 in 0.00 W/m2
11:24 69.2 °F 59.0 °F 29.88 in SSE 8.1 mph 7.8 mph 70% 0.00 in 0.00 W/m2
11:29 69.3 °F 59.1 °F 29.88 in SW 9.2 mph 5.7 mph 70% 0.00 in 0.00 W/m2
11:34 69.7 °F 58.7 °F 29.88 in SW 10.4 mph 6.2 mph 68% 0.00 in 0.00 W/m2
11:39 68.9 °F 58.7 °F 29.88 in South 8.1 mph 6.5 mph 70% 0.00 in 0.00 W/m2
11:44 68.8 °F 59.0 °F 29.88 in South 6.9 mph 5.0 mph 71% 0.00 in 0.00 W/m2
11:49 68.6 °F 58.8 °F 29.88 in SE 12.7 mph 8.0 mph 71% 0.00 in 0.00 W/m2
11:54 68.7 °F 59.3 °F 29.88 in SE 6.0 mph 2.7 mph 72% 0.00 in 0.00 W/m2
11:59 68.8 °F 59.0 °F 29.88 in SW 11.5 mph 8.2 mph 71% 0.00 in 0.00 W/m2
12:04 69.0 °F 59.2 °F 29.88 in SSE 8.1 mph 5.4 mph 71% 0.00 in 0.00 W/m2
12:09 69.2 °F 59.0 °F 29.88 in SW 9.2 mph 4.3 mph 70% 0.00 in 0.00 W/m2
12:14 69.2 °F 59.0 °F 29.88 in SE 11.5 mph 5.6 mph 70% 0.00 in 0.00 W/m2
12:19 69.3 °F 58.7 °F 29.88 in SSW 11.5 mph 5.5 mph 69% 0.00 in 0.00 W/m2
12:24 68.9 °F 58.3 °F 29.88 in SSE 11.5 mph 7.0 mph 69% 0.00 in 0.00 W/m2
12:29 69.0 °F 58.8 °F 29.88 in SSE 10.4 mph 6.0 mph 70% 0.00 in 0.00 W/m2
12:34 69.2 °F 58.6 °F 29.88 in SSE 11.5 mph 6.7 mph 69% 0.00 in 0.00 W/m2
12:39 69.3 °F 59.1 °F 29.88 in East 7.0 mph 5.4 mph 70% 0.00 in 0.00 W/m2
12:44 69.7 °F 59.5 °F 29.87 in SSW 7.0 mph 3.2 mph 70% 0.00 in 0.00 W/m2
12:49 70.0 °F 59.0 °F 29.87 in SE 10.4 mph 6.5 mph 68% 0.00 in 0.00 W/m2
12:54 69.9 °F 58.9 °F 29.87 in SSE 8.1 mph 6.3 mph 68% 0.00 in 0.00 W/m2
12:59 70.0 °F 59.4 °F 29.87 in SSE 9.2 mph 6.9 mph 69% 0.00 in 0.00 W/m2
13:04 70.1 °F 59.9 °F 29.87 in SSE 8.1 mph 4.5 mph 70% 0.00 in 0.00 W/m2
13:09 70.2 °F 58.7 °F 29.88 in SSW 10.4 mph 7.6 mph 67% 0.00 in 0.00 W/m2
13:14 70.1 °F 59.0 °F 29.87 in SE 11.5 mph 8.8 mph 68% 0.00 in 0.00 W/m2
13:19 70.5 °F 59.0 °F 29.87 in SSW 6.9 mph 4.9 mph 67% 0.00 in 0.00 W/m2
13:24 70.9 °F 59.4 °F 29.87 in SW 6.9 mph 3.9 mph 67% 0.00 in 0.00 W/m2
13:29 71.3 °F 58.9 °F 29.87 in SSE 9.2 mph 6.8 mph 65% 0.00 in 0.00 W/m2
13:34 71.3 °F 59.8 °F 29.87 in SE 11.0 mph 5.6 mph 67% 0.00 in 0.00 W/m2
13:39 71.2 °F 59.3 °F 29.86 in WSW 9.0 mph 4.5 mph 66% 0.00 in 0.00 W/m2
13:44 71.6 °F 59.2 °F 29.86 in SSE 10.0 mph 6.3 mph 65% 0.00 in 0.00 W/m2
13:49 71.7 °F 58.9 °F 29.86 in SSE 7.0 mph 6.6 mph 64% 0.00 in 0.00 W/m2
13:54 71.7 °F 59.7 °F 29.86 in South 6.0 mph 4.5 mph 66% 0.00 in 0.00 W/m2
13:59 71.9 °F 58.2 °F 29.86 in SSE 9.2 mph 6.8 mph 62% 0.00 in 0.00 W/m2
14:04 72.3 °F 59.4 °F 29.86 in SW 4.0 mph 3.2 mph 64% 0.00 in 0.00 W/m2
14:09 72.4 °F 59.1 °F 29.86 in SSW 6.9 mph 4.0 mph 63% 0.00 in 0.00 W/m2
14:14 73.0 °F 60.1 °F 29.86 in South 8.1 mph 3.4 mph 64% 0.00 in 0.00 W/m2
14:19 73.5 °F 59.2 °F 29.86 in SE 8.1 mph 4.7 mph 61% 0.00 in 0.00 W/m2
14:24 73.2 °F 58.5 °F 29.86 in South 4.6 mph 3.5 mph 60% 0.00 in 0.00 W/m2
14:29 73.0 °F 59.2 °F 29.86 in SSE 8.1 mph 2.8 mph 62% 0.00 in 0.00 W/m2
14:34 72.9 °F 59.1 °F 29.86 in SW 8.0 mph 5.2 mph 62% 0.00 in 0.00 W/m2
14:39 73.2 °F 59.4 °F 29.86 in South 8.1 mph 6.2 mph 62% 0.00 in 0.00 W/m2
14:44 73.2 °F 58.9 °F 29.86 in SSW 9.2 mph 5.9 mph 61% 0.00 in 0.00 W/m2
14:49 73.5 °F 59.2 °F 29.86 in SSW 8.1 mph 5.2 mph 61% 0.00 in 0.00 W/m2
14:54 73.4 °F 58.7 °F 29.86 in South 10.4 mph 2.9 mph 60% 0.00 in 0.00 W/m2
14:59 73.5 °F 58.8 °F 29.86 in South 9.2 mph 5.0 mph 60% 0.00 in 0.00 W/m2
15:04 73.2 °F 58.5 °F 29.86 in SSE 8.1 mph 5.2 mph 60% 0.00 in 0.00 W/m2
15:09 73.4 °F 59.1 °F 29.86 in SE 7.0 mph 5.3 mph 61% 0.00 in 0.00 W/m2
15:14 73.0 °F 58.8 °F 29.86 in SW 7.0 mph 6.5 mph 61% 0.00 in 0.00 W/m2
15:19 73.4 °F 58.7 °F 29.86 in SSE 10.4 mph 6.8 mph 60% 0.00 in 0.00 W/m2
15:24 73.9 °F 59.1 °F 29.86 in South 6.9 mph 4.2 mph 60% 0.00 in 0.00 W/m2
15:29 73.7 °F 58.5 °F 29.86 in SSW 12.0 mph 5.8 mph 59% 0.00 in 0.00 W/m2
15:34 73.5 °F 58.3 °F 29.86 in WSW 6.9 mph 2.4 mph 59% 0.00 in 0.00 W/m2
15:39 73.8 °F 59.0 °F 29.86 in South 5.8 mph 4.1 mph 60% 0.00 in 0.00 W/m2
15:44 73.9 °F 58.2 °F 29.86 in SSE 11.0 mph 8.7 mph 58% 0.00 in 0.00 W/m2
15:49 73.4 °F 58.7 °F 29.86 in SE 8.1 mph 6.4 mph 60% 0.00 in 0.00 W/m2
west seneca weather
Compliments of Weather Underground - 2 mb